Huvudsida
METAR-TAF:

METAR-TAF

Flygplatser :

Aten, Grekland

Aten-Elefthérios Venizélos internationella flygplats

latitud: 37-56N, longitud: 023-56E, höjd: 94 m

Aktuellt väderrapport

Denna rapport gjordes för 16 timmar och 19 minuter sedan, klockan 14:50 UTC
Vind 10 kt från nord/nordost
Temperatur 11°C
Fuktighet 76%
Tryck 1011 hPa
Sikt 10 km eller mer
Få moln på en höjd av 1800 ft
Brutna moln på en höjd av 2500 ft
Brutna moln på en höjd av 7000 ft

METAR: LGAV 201450Z 03010KT 9999 FEW018 BKN025 BKN070 11/07 Q1011 NOSIG

Tid: 09:09 (07:09 UTC)

Väderprognos

Denna rapport gjordes för 20 timmar och 9 minuter sedan, klockan 11:00 UTC
Prognos gäller från 20 kl. 12 UTC till 21 kl. 12 UTC
Vind 12 kt från nord/nordost
Sikt: 9000 m
Få moln på en höjd av 2000 ft
Spridda moln på en höjd av 3000 ft
Brutna moln på en höjd av 7000 ft
Blir
från 20 kl. 18 UTC till 20 kl. 20 UTC
Vind 3 kt varierande vindriktning

TAF: LGAV 201100Z 2012/2112 02012KT 9000 FEW020 SCT030 BKN070 BECMG 2018/2020 VRB03KT

Aktuella väderrapporter och prognoser från 4000 flygplatser (METAR- och TAF-rapporter).

De tillgängliga stationerna syns som gula och röda prickar på kartan.

För musen över prickarna för att se namnen på stationerna.

Klicka sedan för att få väderrapporter och prognoser.

För att ändra kartan: Klicka på de gröna knapparna med ett svart kors på för att zooma in; den gröna knappen med ett streck på för att zooma ut; eller på de gröna pilarna för angränsande kartor.


METAR-TAF: